sensor_id;sensor_type;location;lat;lon;timestamp;P1;durP1;ratioP1;P2;durP2;ratioP2
70558;SDS011;58108;48.094;11.838;2023-01-29T00:02:03;34.90;;;10.23;;
70558;SDS011;58108;48.094;11.838;2023-01-29T00:04:29;29.15;;;9.05;;
70558;SDS011;58108;48.094;11.838;2023-01-29T00:06:54;26.00;;;8.50;;
70558;SDS011;58108;48.094;11.838;2023-01-29T00:09:19;28.77;;;9.10;;
70558;SDS011;58108;48.094;11.838;2023-01-29T00:11:45;28.30;;;8.47;;
70558;SDS011;58108;48.094;11.838;2023-01-29T00:14:10;31.20;;;9.30;;
70558;SDS011;58108;48.094;11.838;2023-01-29T00:16:35;31.37;;;9.60;;
70558;SDS011;58108;48.094;11.838;2023-01-29T00:19:01;30.47;;;9.77;;
70558;SDS011;58108;48.094;11.838;2023-01-29T00:21:26;34.65;;;10.90;;
70558;SDS011;58108;48.094;11.838;2023-01-29T00:23:53;37.73;;;11.17;;
70558;SDS011;58108;48.094;11.838;2023-01-29T00:26:19;32.30;;;9.32;;
70558;SDS011;58108;48.094;11.838;2023-01-29T00:28:44;30.90;;;9.13;;
70558;SDS011;58108;48.094;11.838;2023-01-29T00:31:13;26.07;;;8.50;;
70558;SDS011;58108;48.094;11.838;2023-01-29T00:33:39;28.42;;;7.63;;
70558;SDS011;58108;48.094;11.838;2023-01-29T00:36:05;26.57;;;7.77;;
70558;SDS011;58108;48.094;11.838;2023-01-29T00:38:31;28.98;;;8.75;;
70558;SDS011;58108;48.094;11.838;2023-01-29T00:40:56;26.45;;;8.98;;
70558;SDS011;58108;48.094;11.838;2023-01-29T00:43:40;22.83;;;7.82;;
70558;SDS011;58108;48.094;11.838;2023-01-29T00:46:24;28.23;;;8.67;;
70558;SDS011;58108;48.094;11.838;2023-01-29T00:48:49;27.37;;;8.17;;
70558;SDS011;58108;48.094;11.838;2023-01-29T00:51:14;27.13;;;8.10;;
70558;SDS011;58108;48.094;11.838;2023-01-29T00:53:40;27.50;;;7.77;;
70558;SDS011;58108;48.094;11.838;2023-01-29T00:56:05;28.97;;;8.40;;
70558;SDS011;58108;48.094;11.838;2023-01-29T00:58:30;26.63;;;7.97;;
70558;SDS011;58108;48.094;11.838;2023-01-29T01:00:58;27.20;;;8.60;;
70558;SDS011;58108;48.094;11.838;2023-01-29T01:03:25;25.52;;;7.75;;
70558;SDS011;58108;48.094;11.838;2023-01-29T01:05:50;23.87;;;7.10;;
70558;SDS011;58108;48.094;11.838;2023-01-29T01:08:26;24.20;;;8.25;;
70558;SDS011;58108;48.094;11.838;2023-01-29T01:11:09;24.10;;;7.28;;
70558;SDS011;58108;48.094;11.838;2023-01-29T01:13:35;28.50;;;8.97;;
70558;SDS011;58108;48.094;11.838;2023-01-29T01:16:00;28.60;;;8.43;;
70558;SDS011;58108;48.094;11.838;2023-01-29T01:18:28;22.47;;;6.73;;
70558;SDS011;58108;48.094;11.838;2023-01-29T01:20:55;23.30;;;7.22;;
70558;SDS011;58108;48.094;11.838;2023-01-29T01:23:21;25.02;;;7.72;;
70558;SDS011;58108;48.094;11.838;2023-01-29T01:25:47;27.13;;;7.97;;
70558;SDS011;58108;48.094;11.838;2023-01-29T01:28:12;24.30;;;7.60;;
70558;SDS011;58108;48.094;11.838;2023-01-29T01:30:37;26.63;;;8.63;;
70558;SDS011;58108;48.094;11.838;2023-01-29T01:33:02;25.43;;;8.03;;
70558;SDS011;58108;48.094;11.838;2023-01-29T01:35:27;24.37;;;7.30;;
70558;SDS011;58108;48.094;11.838;2023-01-29T01:37:53;21.47;;;7.47;;
70558;SDS011;58108;48.094;11.838;2023-01-29T01:40:19;25.43;;;8.13;;
70558;SDS011;58108;48.094;11.838;2023-01-29T01:42:48;22.90;;;7.17;;
70558;SDS011;58108;48.094;11.838;2023-01-29T01:45:35;24.55;;;7.72;;
70558;SDS011;58108;48.094;11.838;2023-01-29T01:48:13;23.08;;;6.95;;
70558;SDS011;58108;48.094;11.838;2023-01-29T01:50:51;22.27;;;7.43;;
70558;SDS011;58108;48.094;11.838;2023-01-29T01:53:21;18.30;;;6.38;;
70558;SDS011;58108;48.094;11.838;2023-01-29T01:55:55;25.43;;;8.03;;
70558;SDS011;58108;48.094;11.838;2023-01-29T01:58:23;23.50;;;7.32;;
70558;SDS011;58108;48.094;11.838;2023-01-29T02:00:49;23.27;;;7.90;;
70558;SDS011;58108;48.094;11.838;2023-01-29T02:03:15;19.03;;;6.07;;
70558;SDS011;58108;48.094;11.838;2023-01-29T02:06:00;20.35;;;7.18;;
70558;SDS011;58108;48.094;11.838;2023-01-29T02:08:46;21.75;;;6.93;;
70558;SDS011;58108;48.094;11.838;2023-01-29T02:11:32;23.13;;;6.93;;
70558;SDS011;58108;48.094;11.838;2023-01-29T02:13:57;21.63;;;7.33;;
70558;SDS011;58108;48.094;11.838;2023-01-29T02:16:22;22.07;;;7.70;;
70558;SDS011;58108;48.094;11.838;2023-01-29T02:18:48;22.00;;;7.03;;
70558;SDS011;58108;48.094;11.838;2023-01-29T02:23:56;24.20;;;7.60;;
70558;SDS011;58108;48.094;11.838;2023-01-29T02:26:44;20.90;;;7.60;;
70558;SDS011;58108;48.094;11.838;2023-01-29T02:29:17;21.85;;;7.50;;
70558;SDS011;58108;48.094;11.838;2023-01-29T02:32:01;22.27;;;7.43;;
70558;SDS011;58108;48.094;11.838;2023-01-29T02:37:04;22.48;;;7.10;;
70558;SDS011;58108;48.094;11.838;2023-01-29T02:39:37;22.73;;;7.32;;
70558;SDS011;58108;48.094;11.838;2023-01-29T02:42:12;23.17;;;7.50;;
70558;SDS011;58108;48.094;11.838;2023-01-29T02:44:40;23.95;;;7.68;;
70558;SDS011;58108;48.094;11.838;2023-01-29T02:47:20;25.90;;;8.45;;
70558;SDS011;58108;48.094;11.838;2023-01-29T02:49:47;22.53;;;6.77;;
70558;SDS011;58108;48.094;11.838;2023-01-29T02:52:18;23.13;;;7.72;;
70558;SDS011;58108;48.094;11.838;2023-01-29T02:57:29;23.52;;;7.30;;
70558;SDS011;58108;48.094;11.838;2023-01-29T02:59:58;26.48;;;8.13;;
70558;SDS011;58108;48.094;11.838;2023-01-29T03:02:28;21.40;;;7.00;;
70558;SDS011;58108;48.094;11.838;2023-01-29T03:04:58;23.20;;;6.70;;
70558;SDS011;58108;48.094;11.838;2023-01-29T03:07:28;22.85;;;7.53;;
70558;SDS011;58108;48.094;11.838;2023-01-29T03:10:12;21.48;;;6.82;;
70558;SDS011;58108;48.094;11.838;2023-01-29T03:12:39;22.42;;;7.05;;
70558;SDS011;58108;48.094;11.838;2023-01-29T03:15:08;22.07;;;6.87;;
70558;SDS011;58108;48.094;11.838;2023-01-29T03:17:36;22.90;;;7.77;;
70558;SDS011;58108;48.094;11.838;2023-01-29T03:20:03;22.55;;;7.72;;
70558;SDS011;58108;48.094;11.838;2023-01-29T03:22:31;24.60;;;8.15;;
70558;SDS011;58108;48.094;11.838;2023-01-29T03:24:57;23.23;;;7.67;;
70558;SDS011;58108;48.094;11.838;2023-01-29T03:27:52;23.20;;;6.93;;
70558;SDS011;58108;48.094;11.838;2023-01-29T03:30:39;26.73;;;7.60;;
70558;SDS011;58108;48.094;11.838;2023-01-29T03:33:25;24.05;;;7.40;;
70558;SDS011;58108;48.094;11.838;2023-01-29T03:35:59;24.40;;;6.75;;
70558;SDS011;58108;48.094;11.838;2023-01-29T03:38:27;26.83;;;7.93;;
70558;SDS011;58108;48.094;11.838;2023-01-29T03:40:58;24.67;;;7.85;;
70558;SDS011;58108;48.094;11.838;2023-01-29T03:43:35;21.95;;;7.57;;
70558;SDS011;58108;48.094;11.838;2023-01-29T03:46:05;20.95;;;6.95;;
70558;SDS011;58108;48.094;11.838;2023-01-29T03:56:01;23.05;;;6.53;;
70558;SDS011;58108;48.094;11.838;2023-01-29T04:00:57;20.92;;;6.45;;
70558;SDS011;58108;48.094;11.838;2023-01-29T04:03:27;20.42;;;7.00;;
70558;SDS011;58108;48.094;11.838;2023-01-29T04:05:56;20.08;;;6.13;;
70558;SDS011;58108;48.094;11.838;2023-01-29T04:08:29;17.67;;;5.67;;
70558;SDS011;58108;48.094;11.838;2023-01-29T04:10:57;18.33;;;5.68;;
70558;SDS011;58108;48.094;11.838;2023-01-29T04:13:23;15.95;;;5.45;;
70558;SDS011;58108;48.094;11.838;2023-01-29T04:15:49;17.67;;;6.10;;
70558;SDS011;58108;48.094;11.838;2023-01-29T04:18:15;15.50;;;4.25;;
70558;SDS011;58108;48.094;11.838;2023-01-29T04:20:41;19.03;;;6.10;;
70558;SDS011;58108;48.094;11.838;2023-01-29T04:23:17;20.27;;;6.22;;
70558;SDS011;58108;48.094;11.838;2023-01-29T04:25:44;21.00;;;6.00;;
70558;SDS011;58108;48.094;11.838;2023-01-29T04:28:13;21.90;;;7.07;;
70558;SDS011;58108;48.094;11.838;2023-01-29T04:30:53;21.65;;;6.47;;
70558;SDS011;58108;48.094;11.838;2023-01-29T04:35:52;20.03;;;6.33;;
70558;SDS011;58108;48.094;11.838;2023-01-29T04:38:23;18.80;;;6.47;;
70558;SDS011;58108;48.094;11.838;2023-01-29T04:43:31;20.70;;;6.78;;
70558;SDS011;58108;48.094;11.838;2023-01-29T04:48:54;16.92;;;6.05;;
70558;SDS011;58108;48.094;11.838;2023-01-29T04:57:01;18.47;;;5.57;;
70558;SDS011;58108;48.094;11.838;2023-01-29T04:59:35;17.70;;;6.00;;
70558;SDS011;58108;48.094;11.838;2023-01-29T05:02:00;17.45;;;5.68;;
70558;SDS011;58108;48.094;11.838;2023-01-29T05:04:26;17.98;;;5.97;;
70558;SDS011;58108;48.094;11.838;2023-01-29T05:06:52;19.48;;;6.13;;
70558;SDS011;58108;48.094;11.838;2023-01-29T05:09:18;18.35;;;6.28;;
70558;SDS011;58108;48.094;11.838;2023-01-29T05:11:44;21.53;;;6.37;;
70558;SDS011;58108;48.094;11.838;2023-01-29T05:14:10;19.42;;;6.18;;
70558;SDS011;58108;48.094;11.838;2023-01-29T05:16:42;20.73;;;6.72;;
70558;SDS011;58108;48.094;11.838;2023-01-29T05:19:08;20.15;;;6.07;;
70558;SDS011;58108;48.094;11.838;2023-01-29T05:21:33;18.23;;;6.30;;
70558;SDS011;58108;48.094;11.838;2023-01-29T05:24:08;17.20;;;6.10;;
70558;SDS011;58108;48.094;11.838;2023-01-29T05:26:34;21.23;;;6.45;;
70558;SDS011;58108;48.094;11.838;2023-01-29T05:29:18;20.48;;;6.72;;
70558;SDS011;58108;48.094;11.838;2023-01-29T05:31:44;21.02;;;6.00;;
70558;SDS011;58108;48.094;11.838;2023-01-29T05:34:09;21.58;;;6.57;;
70558;SDS011;58108;48.094;11.838;2023-01-29T05:36:34;21.60;;;6.77;;
70558;SDS011;58108;48.094;11.838;2023-01-29T05:39:00;18.63;;;5.80;;
70558;SDS011;58108;48.094;11.838;2023-01-29T05:41:25;19.17;;;6.23;;
70558;SDS011;58108;48.094;11.838;2023-01-29T05:43:50;16.97;;;5.70;;
70558;SDS011;58108;48.094;11.838;2023-01-29T05:46:15;17.40;;;5.50;;
70558;SDS011;58108;48.094;11.838;2023-01-29T05:48:40;20.13;;;6.00;;
70558;SDS011;58108;48.094;11.838;2023-01-29T05:51:05;20.57;;;6.13;;
70558;SDS011;58108;48.094;11.838;2023-01-29T05:53:31;22.83;;;7.70;;
70558;SDS011;58108;48.094;11.838;2023-01-29T05:55:59;21.02;;;6.78;;
70558;SDS011;58108;48.094;11.838;2023-01-29T05:58:24;21.03;;;6.23;;
70558;SDS011;58108;48.094;11.838;2023-01-29T06:00:49;22.23;;;6.90;;
70558;SDS011;58108;48.094;11.838;2023-01-29T06:03:15;20.97;;;6.53;;
70558;SDS011;58108;48.094;11.838;2023-01-29T06:05:40;22.73;;;6.83;;
70558;SDS011;58108;48.094;11.838;2023-01-29T06:08:05;22.47;;;7.50;;
70558;SDS011;58108;48.094;11.838;2023-01-29T06:10:30;23.10;;;7.20;;
70558;SDS011;58108;48.094;11.838;2023-01-29T06:12:56;19.33;;;6.17;;
70558;SDS011;58108;48.094;11.838;2023-01-29T06:15:21;18.77;;;5.87;;
70558;SDS011;58108;48.094;11.838;2023-01-29T06:17:46;19.53;;;6.50;;
70558;SDS011;58108;48.094;11.838;2023-01-29T06:20:11;19.47;;;6.60;;
70558;SDS011;58108;48.094;11.838;2023-01-29T06:22:36;20.63;;;6.23;;
70558;SDS011;58108;48.094;11.838;2023-01-29T06:25:02;19.50;;;6.43;;
70558;SDS011;58108;48.094;11.838;2023-01-29T06:27:27;19.33;;;6.17;;
70558;SDS011;58108;48.094;11.838;2023-01-29T06:29:52;19.70;;;6.03;;
70558;SDS011;58108;48.094;11.838;2023-01-29T06:32:18;18.83;;;6.27;;
70558;SDS011;58108;48.094;11.838;2023-01-29T06:34:43;17.50;;;6.00;;
70558;SDS011;58108;48.094;11.838;2023-01-29T06:37:08;22.63;;;6.73;;
70558;SDS011;58108;48.094;11.838;2023-01-29T06:39:33;21.03;;;7.03;;
70558;SDS011;58108;48.094;11.838;2023-01-29T06:41:58;19.17;;;6.17;;
70558;SDS011;58108;48.094;11.838;2023-01-29T06:44:23;20.43;;;5.97;;
70558;SDS011;58108;48.094;11.838;2023-01-29T06:46:49;18.27;;;6.40;;
70558;SDS011;58108;48.094;11.838;2023-01-29T06:49:14;20.30;;;6.63;;
70558;SDS011;58108;48.094;11.838;2023-01-29T06:51:39;20.30;;;6.70;;
70558;SDS011;58108;48.094;11.838;2023-01-29T06:54:04;19.57;;;6.67;;
70558;SDS011;58108;48.094;11.838;2023-01-29T06:56:32;25.42;;;8.05;;
70558;SDS011;58108;48.094;11.838;2023-01-29T06:58:57;36.77;;;12.83;;
70558;SDS011;58108;48.094;11.838;2023-01-29T07:01:22;26.67;;;9.00;;
70558;SDS011;58108;48.094;11.838;2023-01-29T07:03:48;22.73;;;7.60;;
70558;SDS011;58108;48.094;11.838;2023-01-29T07:06:13;18.60;;;5.87;;
70558;SDS011;58108;48.094;11.838;2023-01-29T07:08:38;17.87;;;5.23;;
70558;SDS011;58108;48.094;11.838;2023-01-29T07:11:04;17.38;;;5.35;;
70558;SDS011;58108;48.094;11.838;2023-01-29T07:13:30;16.30;;;5.03;;
70558;SDS011;58108;48.094;11.838;2023-01-29T07:16:01;15.83;;;5.40;;
70558;SDS011;58108;48.094;11.838;2023-01-29T07:18:27;17.45;;;5.85;;
70558;SDS011;58108;48.094;11.838;2023-01-29T07:20:53;17.10;;;5.85;;
70558;SDS011;58108;48.094;11.838;2023-01-29T07:23:18;17.10;;;5.73;;
70558;SDS011;58108;48.094;11.838;2023-01-29T07:25:43;16.97;;;5.77;;
70558;SDS011;58108;48.094;11.838;2023-01-29T07:28:08;17.43;;;5.60;;
70558;SDS011;58108;48.094;11.838;2023-01-29T07:30:34;15.90;;;5.60;;
70558;SDS011;58108;48.094;11.838;2023-01-29T07:33:00;15.00;;;4.90;;
70558;SDS011;58108;48.094;11.838;2023-01-29T07:35:25;17.20;;;5.53;;
70558;SDS011;58108;48.094;11.838;2023-01-29T07:37:50;18.40;;;5.87;;
70558;SDS011;58108;48.094;11.838;2023-01-29T07:40:15;14.13;;;5.20;;
70558;SDS011;58108;48.094;11.838;2023-01-29T07:42:41;16.17;;;4.87;;
70558;SDS011;58108;48.094;11.838;2023-01-29T07:45:08;17.08;;;5.47;;
70558;SDS011;58108;48.094;11.838;2023-01-29T07:47:33;14.70;;;4.80;;
70558;SDS011;58108;48.094;11.838;2023-01-29T07:49:58;9.17;;;3.23;;
70558;SDS011;58108;48.094;11.838;2023-01-29T07:52:24;13.93;;;5.17;;
70558;SDS011;58108;48.094;11.838;2023-01-29T07:54:49;15.73;;;4.70;;
70558;SDS011;58108;48.094;11.838;2023-01-29T07:57:14;14.70;;;4.70;;
70558;SDS011;58108;48.094;11.838;2023-01-29T07:59:39;19.23;;;5.43;;
70558;SDS011;58108;48.094;11.838;2023-01-29T08:02:05;17.88;;;6.18;;
70558;SDS011;58108;48.094;11.838;2023-01-29T08:04:30;16.37;;;5.73;;
70558;SDS011;58108;48.094;11.838;2023-01-29T08:06:55;14.73;;;4.07;;
70558;SDS011;58108;48.094;11.838;2023-01-29T08:09:20;9.90;;;3.20;;
70558;SDS011;58108;48.094;11.838;2023-01-29T08:11:45;9.80;;;3.10;;
70558;SDS011;58108;48.094;11.838;2023-01-29T08:14:11;10.23;;;3.13;;
70558;SDS011;58108;48.094;11.838;2023-01-29T08:16:36;10.70;;;3.10;;
70558;SDS011;58108;48.094;11.838;2023-01-29T08:19:01;10.47;;;3.37;;
70558;SDS011;58108;48.094;11.838;2023-01-29T08:21:26;9.33;;;3.13;;
70558;SDS011;58108;48.094;11.838;2023-01-29T08:23:51;11.33;;;3.30;;
70558;SDS011;58108;48.094;11.838;2023-01-29T08:26:17;13.90;;;4.00;;
70558;SDS011;58108;48.094;11.838;2023-01-29T08:28:42;13.00;;;4.10;;
70558;SDS011;58108;48.094;11.838;2023-01-29T08:31:17;10.43;;;2.63;;
70558;SDS011;58108;48.094;11.838;2023-01-29T08:33:44;14.03;;;3.87;;
70558;SDS011;58108;48.094;11.838;2023-01-29T08:36:09;16.50;;;4.70;;
70558;SDS011;58108;48.094;11.838;2023-01-29T08:38:34;10.73;;;3.10;;
70558;SDS011;58108;48.094;11.838;2023-01-29T08:41:00;9.30;;;2.60;;
70558;SDS011;58108;48.094;11.838;2023-01-29T08:43:25;8.57;;;2.63;;
70558;SDS011;58108;48.094;11.838;2023-01-29T08:45:50;10.32;;;2.60;;
70558;SDS011;58108;48.094;11.838;2023-01-29T08:48:15;8.43;;;2.37;;
70558;SDS011;58108;48.094;11.838;2023-01-29T08:50:40;8.17;;;2.47;;
70558;SDS011;58108;48.094;11.838;2023-01-29T08:53:07;8.07;;;2.93;;
70558;SDS011;58108;48.094;11.838;2023-01-29T08:55:34;9.10;;;3.13;;
70558;SDS011;58108;48.094;11.838;2023-01-29T08:57:59;10.32;;;3.20;;
70558;SDS011;58108;48.094;11.838;2023-01-29T09:00:24;9.17;;;2.97;;
70558;SDS011;58108;48.094;11.838;2023-01-29T09:02:49;9.17;;;3.30;;
70558;SDS011;58108;48.094;11.838;2023-01-29T09:05:15;7.53;;;2.77;;
70558;SDS011;58108;48.094;11.838;2023-01-29T09:07:40;9.90;;;2.63;;
70558;SDS011;58108;48.094;11.838;2023-01-29T09:10:05;10.07;;;3.23;;
70558;SDS011;58108;48.094;11.838;2023-01-29T09:12:30;8.57;;;3.07;;
70558;SDS011;58108;48.094;11.838;2023-01-29T09:14:55;10.27;;;3.50;;
70558;SDS011;58108;48.094;11.838;2023-01-29T09:17:21;9.07;;;3.20;;
70558;SDS011;58108;48.094;11.838;2023-01-29T09:19:46;9.83;;;3.20;;
70558;SDS011;58108;48.094;11.838;2023-01-29T09:22:11;8.90;;;3.10;;
70558;SDS011;58108;48.094;11.838;2023-01-29T09:24:36;10.40;;;3.43;;
70558;SDS011;58108;48.094;11.838;2023-01-29T09:27:01;11.33;;;3.30;;
70558;SDS011;58108;48.094;11.838;2023-01-29T09:29:27;11.23;;;3.60;;
70558;SDS011;58108;48.094;11.838;2023-01-29T09:31:52;11.30;;;3.30;;
70558;SDS011;58108;48.094;11.838;2023-01-29T09:34:17;11.77;;;3.33;;
70558;SDS011;58108;48.094;11.838;2023-01-29T09:36:42;9.60;;;3.00;;
70558;SDS011;58108;48.094;11.838;2023-01-29T09:39:08;11.67;;;3.43;;
70558;SDS011;58108;48.094;11.838;2023-01-29T09:44:02;11.15;;;3.58;;
70558;SDS011;58108;48.094;11.838;2023-01-29T09:46:34;11.88;;;3.83;;
70558;SDS011;58108;48.094;11.838;2023-01-29T09:49:03;12.75;;;4.72;;
70558;SDS011;58108;48.094;11.838;2023-01-29T09:51:32;13.10;;;4.43;;
70558;SDS011;58108;48.094;11.838;2023-01-29T09:54:05;13.77;;;4.43;;
70558;SDS011;58108;48.094;11.838;2023-01-29T09:56:32;13.15;;;4.85;;
70558;SDS011;58108;48.094;11.838;2023-01-29T09:58:58;13.13;;;4.07;;
70558;SDS011;58108;48.094;11.838;2023-01-29T10:01:35;12.40;;;3.97;;
70558;SDS011;58108;48.094;11.838;2023-01-29T10:14:33;13.38;;;4.60;;
70558;SDS011;58108;48.094;11.838;2023-01-29T10:19:48;8.63;;;2.45;;
70558;SDS011;58108;48.094;11.838;2023-01-29T10:22:40;13.23;;;4.40;;
70558;SDS011;58108;48.094;11.838;2023-01-29T10:25:09;11.43;;;3.65;;
70558;SDS011;58108;48.094;11.838;2023-01-29T10:27:36;6.25;;;2.20;;
70558;SDS011;58108;48.094;11.838;2023-01-29T10:30:03;11.00;;;4.70;;
70558;SDS011;58108;48.094;11.838;2023-01-29T10:32:30;9.65;;;2.55;;
70558;SDS011;58108;48.094;11.838;2023-01-29T10:34:57;13.23;;;4.70;;
70558;SDS011;58108;48.094;11.838;2023-01-29T10:37:31;12.85;;;4.72;;
70558;SDS011;58108;48.094;11.838;2023-01-29T10:39:58;15.02;;;4.35;;
70558;SDS011;58108;48.094;11.838;2023-01-29T10:42:34;13.83;;;4.60;;
70558;SDS011;58108;48.094;11.838;2023-01-29T10:52:35;13.50;;;5.00;;
70558;SDS011;58108;48.094;11.838;2023-01-29T10:57:45;17.00;;;5.38;;
70558;SDS011;58108;48.094;11.838;2023-01-29T11:00:16;14.18;;;4.75;;
70558;SDS011;58108;48.094;11.838;2023-01-29T11:02:43;9.10;;;3.30;;
70558;SDS011;58108;48.094;11.838;2023-01-29T11:05:19;15.52;;;5.13;;
70558;SDS011;58108;48.094;11.838;2023-01-29T11:07:46;13.33;;;4.57;;
70558;SDS011;58108;48.094;11.838;2023-01-29T11:10:16;15.35;;;5.10;;
70558;SDS011;58108;48.094;11.838;2023-01-29T11:12:45;14.15;;;4.57;;
70558;SDS011;58108;48.094;11.838;2023-01-29T11:15:15;12.73;;;4.57;;
70558;SDS011;58108;48.094;11.838;2023-01-29T11:17:59;12.25;;;4.43;;
70558;SDS011;58108;48.094;11.838;2023-01-29T11:20:25;13.32;;;4.72;;
70558;SDS011;58108;48.094;11.838;2023-01-29T11:22:54;12.97;;;4.40;;
70558;SDS011;58108;48.094;11.838;2023-01-29T11:25:19;13.68;;;4.78;;
70558;SDS011;58108;48.094;11.838;2023-01-29T11:27:49;13.65;;;4.68;;
70558;SDS011;58108;48.094;11.838;2023-01-29T11:30:18;13.33;;;4.43;;
70558;SDS011;58108;48.094;11.838;2023-01-29T11:32:44;14.55;;;4.53;;
70558;SDS011;58108;48.094;11.838;2023-01-29T11:37:40;16.15;;;4.90;;
70558;SDS011;58108;48.094;11.838;2023-01-29T11:42:42;14.70;;;4.67;;
70558;SDS011;58108;48.094;11.838;2023-01-29T11:45:24;13.45;;;4.28;;
70558;SDS011;58108;48.094;11.838;2023-01-29T11:47:51;12.82;;;4.55;;
70558;SDS011;58108;48.094;11.838;2023-01-29T11:50:19;12.13;;;4.10;;
70558;SDS011;58108;48.094;11.838;2023-01-29T11:52:45;13.20;;;4.70;;
70558;SDS011;58108;48.094;11.838;2023-01-29T11:55:17;13.40;;;4.23;;
70558;SDS011;58108;48.094;11.838;2023-01-29T11:57:45;12.80;;;4.40;;
70558;SDS011;58108;48.094;11.838;2023-01-29T12:00:16;12.93;;;4.43;;
70558;SDS011;58108;48.094;11.838;2023-01-29T12:02:45;12.45;;;4.25;;
70558;SDS011;58108;48.094;11.838;2023-01-29T12:05:16;4.87;;;2.10;;
70558;SDS011;58108;48.094;11.838;2023-01-29T12:07:42;9.20;;;3.25;;
70558;SDS011;58108;48.094;11.838;2023-01-29T12:10:28;10.35;;;3.30;;
70558;SDS011;58108;48.094;11.838;2023-01-29T12:12:54;11.27;;;4.90;;
70558;SDS011;58108;48.094;11.838;2023-01-29T12:15:27;9.23;;;2.78;;
70558;SDS011;58108;48.094;11.838;2023-01-29T12:17:57;11.97;;;3.53;;
70558;SDS011;58108;48.094;11.838;2023-01-29T12:20:26;10.63;;;3.47;;
70558;SDS011;58108;48.094;11.838;2023-01-29T12:23:02;11.80;;;3.78;;
70558;SDS011;58108;48.094;11.838;2023-01-29T12:28:20;10.25;;;3.22;;
70558;SDS011;58108;48.094;11.838;2023-01-29T12:33:30;11.70;;;4.20;;
70558;SDS011;58108;48.094;11.838;2023-01-29T12:36:33;12.02;;;4.22;;
70558;SDS011;58108;48.094;11.838;2023-01-29T12:38:49;11.57;;;4.18;;
70558;SDS011;58108;48.094;11.838;2023-01-29T12:41:22;10.93;;;3.97;;
70558;SDS011;58108;48.094;11.838;2023-01-29T12:43:49;12.20;;;4.35;;
70558;SDS011;58108;48.094;11.838;2023-01-29T12:46:17;9.82;;;3.67;;
70558;SDS011;58108;48.094;11.838;2023-01-29T12:48:44;10.70;;;3.60;;
70558;SDS011;58108;48.094;11.838;2023-01-29T12:51:22;12.85;;;4.28;;
70558;SDS011;58108;48.094;11.838;2023-01-29T12:53:53;9.13;;;3.10;;
70558;SDS011;58108;48.094;11.838;2023-01-29T12:58:46;8.60;;;3.25;;
70558;SDS011;58108;48.094;11.838;2023-01-29T13:04:05;9.95;;;3.22;;
70558;SDS011;58108;48.094;11.838;2023-01-29T13:06:44;10.70;;;3.22;;
70558;SDS011;58108;48.094;11.838;2023-01-29T13:09:20;13.77;;;3.63;;
70558;SDS011;58108;48.094;11.838;2023-01-29T13:11:51;7.47;;;2.28;;
70558;SDS011;58108;48.094;11.838;2023-01-29T13:14:21;8.23;;;2.72;;
70558;SDS011;58108;48.094;11.838;2023-01-29T13:16:49;8.10;;;3.03;;
70558;SDS011;58108;48.094;11.838;2023-01-29T13:19:20;6.53;;;1.90;;
70558;SDS011;58108;48.094;11.838;2023-01-29T13:21:47;11.13;;;3.47;;
70558;SDS011;58108;48.094;11.838;2023-01-29T13:24:14;9.40;;;2.45;;
70558;SDS011;58108;48.094;11.838;2023-01-29T13:26:43;7.90;;;2.92;;
70558;SDS011;58108;48.094;11.838;2023-01-29T13:29:14;6.75;;;1.85;;
70558;SDS011;58108;48.094;11.838;2023-01-29T13:31:44;5.67;;;1.33;;
70558;SDS011;58108;48.094;11.838;2023-01-29T13:34:30;8.73;;;2.78;;
70558;SDS011;58108;48.094;11.838;2023-01-29T13:36:57;6.38;;;2.42;;
70558;SDS011;58108;48.094;11.838;2023-01-29T13:39:30;9.45;;;3.40;;
70558;SDS011;58108;48.094;11.838;2023-01-29T13:41:56;7.25;;;2.78;;
70558;SDS011;58108;48.094;11.838;2023-01-29T13:44:30;4.10;;;1.23;;
70558;SDS011;58108;48.094;11.838;2023-01-29T13:49:26;7.10;;;2.50;;
70558;SDS011;58108;48.094;11.838;2023-01-29T13:51:53;9.52;;;3.35;;
70558;SDS011;58108;48.094;11.838;2023-01-29T13:54:20;8.63;;;3.20;;
70558;SDS011;58108;48.094;11.838;2023-01-29T13:56:57;9.45;;;3.22;;
70558;SDS011;58108;48.094;11.838;2023-01-29T14:04:47;9.88;;;3.17;;
70558;SDS011;58108;48.094;11.838;2023-01-29T14:08:17;11.90;;;4.00;;
70558;SDS011;58108;48.094;11.838;2023-01-29T14:10:17;3.70;;;1.25;;
70558;SDS011;58108;48.094;11.838;2023-01-29T14:12:43;12.07;;;4.15;;
70558;SDS011;58108;48.094;11.838;2023-01-29T14:15:27;11.40;;;3.43;;
70558;SDS011;58108;48.094;11.838;2023-01-29T14:18:14;11.98;;;3.05;;
70558;SDS011;58108;48.094;11.838;2023-01-29T14:23:20;8.20;;;2.90;;
70558;SDS011;58108;48.094;11.838;2023-01-29T14:25:46;5.17;;;1.60;;
70558;SDS011;58108;48.094;11.838;2023-01-29T14:28:13;12.18;;;4.18;;
70558;SDS011;58108;48.094;11.838;2023-01-29T14:30:38;11.80;;;4.22;;
70558;SDS011;58108;48.094;11.838;2023-01-29T14:33:05;8.90;;;3.10;;
70558;SDS011;58108;48.094;11.838;2023-01-29T14:35:41;6.57;;;2.13;;
70558;SDS011;58108;48.094;11.838;2023-01-29T14:38:13;5.95;;;1.90;;
70558;SDS011;58108;48.094;11.838;2023-01-29T14:40:38;4.87;;;2.13;;
70558;SDS011;58108;48.094;11.838;2023-01-29T14:43:08;10.85;;;3.20;;
70558;SDS011;58108;48.094;11.838;2023-01-29T14:45:43;11.13;;;3.72;;
70558;SDS011;58108;48.094;11.838;2023-01-29T14:55:34;7.93;;;2.90;;
70558;SDS011;58108;48.094;11.838;2023-01-29T14:58:01;9.63;;;2.78;;
70558;SDS011;58108;48.094;11.838;2023-01-29T15:00:29;10.02;;;3.30;;
70558;SDS011;58108;48.094;11.838;2023-01-29T15:02:54;9.15;;;3.50;;
70558;SDS011;58108;48.094;11.838;2023-01-29T15:05:27;11.60;;;4.20;;
70558;SDS011;58108;48.094;11.838;2023-01-29T15:08:02;8.82;;;3.45;;
70558;SDS011;58108;48.094;11.838;2023-01-29T15:13:16;5.18;;;1.73;;
70558;SDS011;58108;48.094;11.838;2023-01-29T15:16:01;9.13;;;2.80;;
70558;SDS011;58108;48.094;11.838;2023-01-29T15:18:33;10.18;;;3.88;;
70558;SDS011;58108;48.094;11.838;2023-01-29T15:21:01;10.75;;;3.83;;
70558;SDS011;58108;48.094;11.838;2023-01-29T15:23:28;12.32;;;4.43;;
70558;SDS011;58108;48.094;11.838;2023-01-29T15:25:54;11.68;;;4.57;;
70558;SDS011;58108;48.094;11.838;2023-01-29T15:28:20;12.27;;;4.40;;
70558;SDS011;58108;48.094;11.838;2023-01-29T15:30:46;12.32;;;3.95;;
70558;SDS011;58108;48.094;11.838;2023-01-29T15:33:14;12.50;;;4.73;;
70558;SDS011;58108;48.094;11.838;2023-01-29T15:35:40;10.73;;;3.40;;
70558;SDS011;58108;48.094;11.838;2023-01-29T15:40:31;9.90;;;3.87;;
70558;SDS011;58108;48.094;11.838;2023-01-29T15:42:56;10.00;;;3.08;;
70558;SDS011;58108;48.094;11.838;2023-01-29T15:47:47;10.60;;;3.77;;
70558;SDS011;58108;48.094;11.838;2023-01-29T15:50:13;12.27;;;4.57;;
70558;SDS011;58108;48.094;11.838;2023-01-29T15:52:38;12.77;;;3.97;;
70558;SDS011;58108;48.094;11.838;2023-01-29T15:55:03;12.40;;;4.63;;
70558;SDS011;58108;48.094;11.838;2023-01-29T15:57:34;12.38;;;4.03;;
70558;SDS011;58108;48.094;11.838;2023-01-29T16:00:01;11.38;;;4.20;;
70558;SDS011;58108;48.094;11.838;2023-01-29T16:02:34;11.40;;;4.00;;
70558;SDS011;58108;48.094;11.838;2023-01-29T16:05:00;14.40;;;5.33;;
70558;SDS011;58108;48.094;11.838;2023-01-29T16:07:26;14.40;;;5.45;;
70558;SDS011;58108;48.094;11.838;2023-01-29T16:09:51;9.90;;;4.53;;
70558;SDS011;58108;48.094;11.838;2023-01-29T16:12:17;17.17;;;7.25;;